sensor_id;sensor_type;location;lat;lon;timestamp;pressure;altitude;pressure_sealevel;temperature;humidity
50854;BME280;44154;45.506;-122.806;2022-08-21T00:00:07;100543.19;;;25.51;51.19
50854;BME280;44154;45.506;-122.806;2022-08-21T00:02:34;100552.00;;;25.53;50.91
50854;BME280;44154;45.506;-122.806;2022-08-21T00:05:00;100546.25;;;25.54;51.11
50854;BME280;44154;45.506;-122.806;2022-08-21T00:07:26;100537.47;;;25.57;50.81
50854;BME280;44154;45.506;-122.806;2022-08-21T00:09:52;100551.72;;;25.59;51.12
50854;BME280;44154;45.506;-122.806;2022-08-21T00:12:22;100539.69;;;25.60;50.78
50854;BME280;44154;45.506;-122.806;2022-08-21T00:14:48;100529.25;;;25.62;51.14
50854;BME280;44154;45.506;-122.806;2022-08-21T00:17:15;100533.66;;;25.63;50.80
50854;BME280;44154;45.506;-122.806;2022-08-21T00:19:41;100509.19;;;25.47;50.85
50854;BME280;44154;45.506;-122.806;2022-08-21T00:22:07;100527.63;;;25.67;50.75
50854;BME280;44154;45.506;-122.806;2022-08-21T00:24:33;100522.41;;;25.65;50.73
50854;BME280;44154;45.506;-122.806;2022-08-21T00:26:59;100496.63;;;25.51;51.07
50854;BME280;44154;45.506;-122.806;2022-08-21T00:29:25;100511.47;;;25.65;50.88
50854;BME280;44154;45.506;-122.806;2022-08-21T00:31:52;100517.50;;;25.72;50.78
50854;BME280;44154;45.506;-122.806;2022-08-21T00:34:19;100466.16;;;25.42;50.95
50854;BME280;44154;45.506;-122.806;2022-08-21T00:36:45;100492.81;;;25.62;50.72
50854;BME280;44154;45.506;-122.806;2022-08-21T00:39:11;100512.06;;;25.77;50.88
50854;BME280;44154;45.506;-122.806;2022-08-21T00:41:38;100511.78;;;25.79;50.86
50854;BME280;44154;45.506;-122.806;2022-08-21T00:44:09;100479.13;;;25.62;50.83
50854;BME280;44154;45.506;-122.806;2022-08-21T00:46:37;100509.59;;;25.81;50.84
50854;BME280;44154;45.506;-122.806;2022-08-21T00:49:05;100506.28;;;25.84;50.99
50854;BME280;44154;45.506;-122.806;2022-08-21T00:51:47;100483.81;;;25.72;51.12
50854;BME280;44154;45.506;-122.806;2022-08-21T00:54:15;100506.31;;;25.89;51.37
50854;BME280;44154;45.506;-122.806;2022-08-21T00:56:43;100503.31;;;25.91;51.27
50854;BME280;44154;45.506;-122.806;2022-08-21T00:59:10;100504.69;;;25.93;51.41
50854;BME280;44154;45.506;-122.806;2022-08-21T01:01:36;100467.91;;;25.74;51.55
50854;BME280;44154;45.506;-122.806;2022-08-21T01:04:03;100496.72;;;25.97;51.26
50854;BME280;44154;45.506;-122.806;2022-08-21T01:06:29;100499.75;;;25.95;51.59
50854;BME280;44154;45.506;-122.806;2022-08-21T01:08:55;100483.28;;;25.95;51.42
50854;BME280;44154;45.506;-122.806;2022-08-21T01:11:21;100500.34;;;26.03;51.27
50854;BME280;44154;45.506;-122.806;2022-08-21T01:13:47;100484.66;;;25.88;51.96
50854;BME280;44154;45.506;-122.806;2022-08-21T01:16:17;100502.00;;;26.04;51.86
50854;BME280;44154;45.506;-122.806;2022-08-21T01:18:45;100501.94;;;25.98;51.89
50854;BME280;44154;45.506;-122.806;2022-08-21T01:21:22;100474.50;;;25.88;51.86
50854;BME280;44154;45.506;-122.806;2022-08-21T01:23:51;100493.47;;;26.05;52.00
50854;BME280;44154;45.506;-122.806;2022-08-21T01:26:23;100498.41;;;26.08;52.29
50854;BME280;44154;45.506;-122.806;2022-08-21T01:31:54;100471.22;;;25.96;52.23
50854;BME280;44154;45.506;-122.806;2022-08-21T01:34:22;100492.09;;;26.13;52.21
50854;BME280;44154;45.506;-122.806;2022-08-21T01:36:48;100466.28;;;25.98;52.51
50854;BME280;44154;45.506;-122.806;2022-08-21T01:39:15;100469.03;;;25.93;52.31
50854;BME280;44154;45.506;-122.806;2022-08-21T01:41:41;100489.31;;;25.87;53.11
50854;BME280;44154;45.506;-122.806;2022-08-21T01:44:08;100487.63;;;25.66;54.12
50854;BME280;44154;45.506;-122.806;2022-08-21T01:46:34;100510.88;;;25.58;54.26
50854;BME280;44154;45.506;-122.806;2022-08-21T01:49:01;100499.13;;;25.57;54.68
50854;BME280;44154;45.506;-122.806;2022-08-21T01:51:27;100493.59;;;25.52;54.67
50854;BME280;44154;45.506;-122.806;2022-08-21T01:53:53;100466.13;;;25.32;55.35
50854;BME280;44154;45.506;-122.806;2022-08-21T01:56:19;100502.38;;;25.49;55.00
50854;BME280;44154;45.506;-122.806;2022-08-21T01:58:46;100495.50;;;25.47;55.51
50854;BME280;44154;45.506;-122.806;2022-08-21T02:01:13;100479.84;;;25.32;55.11
50854;BME280;44154;45.506;-122.806;2022-08-21T02:03:39;100501.28;;;25.50;55.40
50854;BME280;44154;45.506;-122.806;2022-08-21T02:06:11;100499.34;;;25.51;55.06
50854;BME280;44154;45.506;-122.806;2022-08-21T02:08:37;100498.00;;;25.53;55.47
50854;BME280;44154;45.506;-122.806;2022-08-21T02:11:03;100495.00;;;25.55;55.18
50854;BME280;44154;45.506;-122.806;2022-08-21T02:13:29;100456.00;;;25.32;55.60
50854;BME280;44154;45.506;-122.806;2022-08-21T02:15:55;100493.63;;;25.57;55.30
50854;BME280;44154;45.506;-122.806;2022-08-21T02:18:21;100494.44;;;25.58;55.74
50854;BME280;44154;45.506;-122.806;2022-08-21T02:20:49;100475.19;;;25.42;55.44
50854;BME280;44154;45.506;-122.806;2022-08-21T02:23:16;100471.94;;;25.45;55.95
50854;BME280;44154;45.506;-122.806;2022-08-21T02:25:42;100480.75;;;25.53;56.19
50854;BME280;44154;45.506;-122.806;2022-08-21T02:28:11;100498.84;;;25.64;56.58
50854;BME280;44154;45.506;-122.806;2022-08-21T02:30:43;100483.22;;;25.54;57.44
50854;BME280;44154;45.506;-122.806;2022-08-21T02:33:10;100499.69;;;25.65;57.08
50854;BME280;44154;45.506;-122.806;2022-08-21T02:35:39;100465.94;;;25.49;57.27
50854;BME280;44154;45.506;-122.806;2022-08-21T02:38:09;100505.97;;;25.65;57.19
50854;BME280;44154;45.506;-122.806;2022-08-21T02:40:38;100511.47;;;25.65;57.47
50854;BME280;44154;45.506;-122.806;2022-08-21T02:43:06;100508.44;;;25.67;58.07
50854;BME280;44154;45.506;-122.806;2022-08-21T02:45:34;100475.78;;;25.50;58.43
50854;BME280;44154;45.506;-122.806;2022-08-21T02:48:13;100514.50;;;25.74;58.20
50854;BME280;44154;45.506;-122.806;2022-08-21T02:50:42;100513.41;;;25.75;58.30
50854;BME280;44154;45.506;-122.806;2022-08-21T02:53:11;100496.97;;;25.75;57.50
50854;BME280;44154;45.506;-122.806;2022-08-21T02:55:39;100509.59;;;25.76;57.87
50854;BME280;44154;45.506;-122.806;2022-08-21T03:00:42;100504.38;;;25.74;57.75
50854;BME280;44154;45.506;-122.806;2022-08-21T03:03:09;100520.00;;;25.84;57.20
50854;BME280;44154;45.506;-122.806;2022-08-21T03:05:36;100511.47;;;25.75;57.38
50854;BME280;44154;45.506;-122.806;2022-08-21T03:08:06;100523.31;;;25.86;56.98
50854;BME280;44154;45.506;-122.806;2022-08-21T03:10:38;100526.56;;;25.78;56.24
50854;BME280;44154;45.506;-122.806;2022-08-21T03:13:08;100527.66;;;25.72;56.29
50854;BME280;44154;45.506;-122.806;2022-08-21T03:15:35;100530.94;;;25.69;56.55
50854;BME280;44154;45.506;-122.806;2022-08-21T03:18:02;100526.28;;;25.69;56.46
50854;BME280;44154;45.506;-122.806;2022-08-21T03:20:30;100539.19;;;25.79;56.11
50854;BME280;44154;45.506;-122.806;2022-08-21T03:22:58;100533.72;;;25.84;55.51
50854;BME280;44154;45.506;-122.806;2022-08-21T03:25:26;100526.59;;;25.83;55.58
50854;BME280;44154;45.506;-122.806;2022-08-21T03:27:53;100533.72;;;25.89;54.76
50854;BME280;44154;45.506;-122.806;2022-08-21T03:30:20;100533.19;;;25.92;53.95
50854;BME280;44154;45.506;-122.806;2022-08-21T03:32:47;100543.06;;;25.93;53.78
50854;BME280;44154;45.506;-122.806;2022-08-21T03:35:14;100532.34;;;25.87;53.57
50854;BME280;44154;45.506;-122.806;2022-08-21T03:37:41;100552.94;;;26.00;53.38
50854;BME280;44154;45.506;-122.806;2022-08-21T03:40:08;100561.19;;;26.00;53.06
50854;BME280;44154;45.506;-122.806;2022-08-21T03:42:35;100551.91;;;26.01;52.79
50854;BME280;44154;45.506;-122.806;2022-08-21T03:45:01;100555.44;;;26.01;53.05
50854;BME280;44154;45.506;-122.806;2022-08-21T03:47:28;100560.94;;;26.01;52.16
50854;BME280;44154;45.506;-122.806;2022-08-21T03:49:54;100570.00;;;26.02;52.94
50854;BME280;44154;45.506;-122.806;2022-08-21T03:52:20;100568.34;;;26.01;52.44
50854;BME280;44154;45.506;-122.806;2022-08-21T03:54:47;100574.66;;;26.01;52.24
50854;BME280;44154;45.506;-122.806;2022-08-21T03:57:13;100570.50;;;25.98;51.86
50854;BME280;44154;45.506;-122.806;2022-08-21T03:59:39;100575.72;;;26.00;52.05
50854;BME280;44154;45.506;-122.806;2022-08-21T04:02:06;100577.63;;;26.00;52.27
50854;BME280;44154;45.506;-122.806;2022-08-21T04:04:34;100582.06;;;26.01;51.83
50854;BME280;44154;45.506;-122.806;2022-08-21T04:07:00;100578.72;;;25.98;52.02
50854;BME280;44154;45.506;-122.806;2022-08-21T04:09:27;100581.22;;;26.00;51.94
50854;BME280;44154;45.506;-122.806;2022-08-21T04:11:53;100590.28;;;26.01;51.89
50854;BME280;44154;45.506;-122.806;2022-08-21T04:14:20;100581.19;;;25.95;51.82
50854;BME280;44154;45.506;-122.806;2022-08-21T04:16:46;100598.50;;;26.01;51.35
50854;BME280;44154;45.506;-122.806;2022-08-21T04:19:12;100586.94;;;25.98;51.63
50854;BME280;44154;45.506;-122.806;2022-08-21T04:21:39;100589.69;;;25.98;51.35
50854;BME280;44154;45.506;-122.806;2022-08-21T04:24:07;100586.66;;;25.95;51.03
50854;BME280;44154;45.506;-122.806;2022-08-21T04:26:37;100588.59;;;25.94;51.23
50854;BME280;44154;45.506;-122.806;2022-08-21T04:29:04;100588.03;;;25.92;50.86
50854;BME280;44154;45.506;-122.806;2022-08-21T04:31:34;100596.78;;;25.89;51.35
50854;BME280;44154;45.506;-122.806;2022-08-21T04:34:03;100591.03;;;25.91;50.91
50854;BME280;44154;45.506;-122.806;2022-08-21T04:36:31;100601.72;;;25.87;50.98
50854;BME280;44154;45.506;-122.806;2022-08-21T04:38:58;100599.53;;;25.89;51.01
50854;BME280;44154;45.506;-122.806;2022-08-21T04:41:24;100605.25;;;25.83;50.85
50854;BME280;44154;45.506;-122.806;2022-08-21T04:43:51;100595.13;;;25.83;51.11
50854;BME280;44154;45.506;-122.806;2022-08-21T04:46:17;100598.41;;;25.85;51.15
50854;BME280;44154;45.506;-122.806;2022-08-21T04:48:44;100602.25;;;25.84;50.98
50854;BME280;44154;45.506;-122.806;2022-08-21T04:51:15;100587.97;;;25.72;51.34
50854;BME280;44154;45.506;-122.806;2022-08-21T04:53:52;100592.91;;;25.75;50.96
50854;BME280;44154;45.506;-122.806;2022-08-21T04:56:35;100586.88;;;25.73;51.34
50854;BME280;44154;45.506;-122.806;2022-08-21T04:59:06;100606.38;;;25.82;51.03
50854;BME280;44154;45.506;-122.806;2022-08-21T05:01:37;100588.50;;;25.69;51.17
50854;BME280;44154;45.506;-122.806;2022-08-21T05:04:06;100611.00;;;25.76;51.18
50854;BME280;44154;45.506;-122.806;2022-08-21T05:06:35;100596.44;;;25.70;51.19
50854;BME280;44154;45.506;-122.806;2022-08-21T05:09:03;100592.28;;;25.62;51.55
50854;BME280;44154;45.506;-122.806;2022-08-21T05:11:31;100542.06;;;25.47;51.39
50854;BME280;44154;45.506;-122.806;2022-08-21T05:13:58;100602.94;;;26.12;51.26
50854;BME280;44154;45.506;-122.806;2022-08-21T05:16:24;100603.25;;;26.31;50.54
50854;BME280;44154;45.506;-122.806;2022-08-21T05:18:50;100612.31;;;26.47;50.62
50854;BME280;44154;45.506;-122.806;2022-08-21T05:21:17;100617.84;;;26.62;50.58
50854;BME280;44154;45.506;-122.806;2022-08-21T05:23:43;100614.03;;;26.74;50.02
50854;BME280;44154;45.506;-122.806;2022-08-21T05:26:09;100619.25;;;26.86;49.85
50854;BME280;44154;45.506;-122.806;2022-08-21T05:28:35;100609.34;;;26.90;49.35
50854;BME280;44154;45.506;-122.806;2022-08-21T05:31:01;100620.88;;;27.02;48.98
50854;BME280;44154;45.506;-122.806;2022-08-21T05:33:27;100620.59;;;27.09;49.05
50854;BME280;44154;45.506;-122.806;2022-08-21T05:35:54;100631.03;;;27.17;48.61
50854;BME280;44154;45.506;-122.806;2022-08-21T05:38:22;100643.66;;;27.23;48.38
50854;BME280;44154;45.506;-122.806;2022-08-21T05:40:48;100635.38;;;27.28;48.19
50854;BME280;44154;45.506;-122.806;2022-08-21T05:43:15;100630.44;;;27.25;47.91
50854;BME280;44154;45.506;-122.806;2022-08-21T05:45:42;100643.09;;;27.37;47.61
50854;BME280;44154;45.506;-122.806;2022-08-21T05:48:11;100643.63;;;27.33;47.47
50854;BME280;44154;45.506;-122.806;2022-08-21T05:50:38;100645.84;;;27.42;47.18
50854;BME280;44154;45.506;-122.806;2022-08-21T05:53:05;100644.47;;;27.44;47.13
50854;BME280;44154;45.506;-122.806;2022-08-21T05:55:32;100633.75;;;27.48;46.94
50854;BME280;44154;45.506;-122.806;2022-08-21T05:57:58;100643.34;;;27.50;46.78
50854;BME280;44154;45.506;-122.806;2022-08-21T06:00:25;100635.13;;;27.50;46.89
50854;BME280;44154;45.506;-122.806;2022-08-21T06:02:51;100637.28;;;27.54;46.61
50854;BME280;44154;45.506;-122.806;2022-08-21T06:05:18;100638.38;;;27.58;46.69
50854;BME280;44154;45.506;-122.806;2022-08-21T06:07:44;100646.34;;;27.59;46.94
50854;BME280;44154;45.506;-122.806;2022-08-21T06:10:10;100642.22;;;27.57;46.85
50854;BME280;44154;45.506;-122.806;2022-08-21T06:12:36;100652.09;;;27.63;46.56
50854;BME280;44154;45.506;-122.806;2022-08-21T06:15:03;100638.66;;;27.56;46.80
50854;BME280;44154;45.506;-122.806;2022-08-21T06:17:29;100623.31;;;27.45;46.63
50854;BME280;44154;45.506;-122.806;2022-08-21T06:19:55;100660.06;;;27.64;46.74
50854;BME280;44154;45.506;-122.806;2022-08-21T06:22:22;100663.09;;;27.63;46.27
50854;BME280;44154;45.506;-122.806;2022-08-21T06:24:48;100648.53;;;27.57;46.40
50854;BME280;44154;45.506;-122.806;2022-08-21T06:27:14;100668.88;;;27.66;46.25
50854;BME280;44154;45.506;-122.806;2022-08-21T06:29:41;100669.69;;;27.67;46.09
50854;BME280;44154;45.506;-122.806;2022-08-21T06:32:11;100657.59;;;27.63;46.24
50854;BME280;44154;45.506;-122.806;2022-08-21T06:34:39;100673.53;;;27.71;45.99
50854;BME280;44154;45.506;-122.806;2022-08-21T06:37:06;100676.00;;;27.73;45.82
50854;BME280;44154;45.506;-122.806;2022-08-21T06:39:33;100674.38;;;27.72;46.01
50854;BME280;44154;45.506;-122.806;2022-08-21T06:42:00;100671.63;;;27.72;46.20
50854;BME280;44154;45.506;-122.806;2022-08-21T06:44:26;100666.66;;;27.68;45.91
50854;BME280;44154;45.506;-122.806;2022-08-21T06:46:52;100677.13;;;27.72;45.82
50854;BME280;44154;45.506;-122.806;2022-08-21T06:49:18;100672.72;;;27.71;45.80
50854;BME280;44154;45.506;-122.806;2022-08-21T06:51:45;100661.16;;;27.68;45.87
50854;BME280;44154;45.506;-122.806;2022-08-21T06:54:11;100662.00;;;27.69;45.62
50854;BME280;44154;45.506;-122.806;2022-08-21T06:56:37;100672.16;;;27.68;45.59
50854;BME280;44154;45.506;-122.806;2022-08-21T06:59:05;100673.00;;;27.69;45.63
50854;BME280;44154;45.506;-122.806;2022-08-21T07:01:31;100674.91;;;27.68;45.38
50854;BME280;44154;45.506;-122.806;2022-08-21T07:03:58;100676.03;;;27.67;45.40
50854;BME280;44154;45.506;-122.806;2022-08-21T07:06:24;100679.06;;;27.66;45.50
50854;BME280;44154;45.506;-122.806;2022-08-21T07:08:51;100679.88;;;27.66;45.55
50854;BME280;44154;45.506;-122.806;2022-08-21T07:11:20;100682.63;;;27.61;45.31
50854;BME280;44154;45.506;-122.806;2022-08-21T07:13:48;100694.72;;;27.65;45.25
50854;BME280;44154;45.506;-122.806;2022-08-21T07:16:14;100686.50;;;27.60;45.57
50854;BME280;44154;45.506;-122.806;2022-08-21T07:18:41;100695.28;;;27.62;45.28
50854;BME280;44154;45.506;-122.806;2022-08-21T07:21:08;100702.72;;;27.62;45.40
50854;BME280;44154;45.506;-122.806;2022-08-21T07:23:40;100695.84;;;27.59;45.06
50854;BME280;44154;45.506;-122.806;2022-08-21T07:26:08;100703.00;;;27.60;45.40
50854;BME280;44154;45.506;-122.806;2022-08-21T07:28:34;100699.41;;;27.60;45.52
50854;BME280;44154;45.506;-122.806;2022-08-21T07:31:01;100695.84;;;27.59;45.25
50854;BME280;44154;45.506;-122.806;2022-08-21T07:33:31;100688.69;;;27.58;45.27
50854;BME280;44154;45.506;-122.806;2022-08-21T07:35:57;100678.81;;;27.52;45.38
50854;BME280;44154;45.506;-122.806;2022-08-21T07:38:25;100689.25;;;27.55;45.32
50854;BME280;44154;45.506;-122.806;2022-08-21T07:40:53;100684.88;;;27.49;45.09
50854;BME280;44154;45.506;-122.806;2022-08-21T07:43:20;100685.97;;;27.48;45.12
50854;BME280;44154;45.506;-122.806;2022-08-21T07:45:47;100689.00;;;27.51;44.82
50854;BME280;44154;45.506;-122.806;2022-08-21T07:48:15;100693.94;;;27.49;44.90
50854;BME280;44154;45.506;-122.806;2022-08-21T07:50:42;100695.88;;;27.49;45.25
50854;BME280;44154;45.506;-122.806;2022-08-21T07:53:09;100691.47;;;27.48;45.18
50854;BME280;44154;45.506;-122.806;2022-08-21T07:55:35;100682.13;;;27.44;44.77
50854;BME280;44154;45.506;-122.806;2022-08-21T07:58:01;100696.41;;;27.46;45.33
50854;BME280;44154;45.506;-122.806;2022-08-21T08:00:28;100697.78;;;27.43;45.25
50854;BME280;44154;45.506;-122.806;2022-08-21T08:02:55;100701.63;;;27.42;44.79
50854;BME280;44154;45.506;-122.806;2022-08-21T08:05:24;100695.88;;;27.39;44.94
50854;BME280;44154;45.506;-122.806;2022-08-21T08:07:52;100699.16;;;27.41;45.12
50854;BME280;44154;45.506;-122.806;2022-08-21T08:10:19;100706.59;;;27.40;44.69
50854;BME280;44154;45.506;-122.806;2022-08-21T08:12:46;100709.63;;;27.39;44.82
50854;BME280;44154;45.506;-122.806;2022-08-21T08:15:18;100706.03;;;27.38;44.89
50854;BME280;44154;45.506;-122.806;2022-08-21T08:17:45;100699.16;;;27.35;45.13
50854;BME280;44154;45.506;-122.806;2022-08-21T08:20:12;100711.28;;;27.34;45.02
50854;BME280;44154;45.506;-122.806;2022-08-21T08:22:40;100704.09;;;27.33;44.99
50854;BME280;44154;45.506;-122.806;2022-08-21T08:25:08;100701.09;;;27.30;44.54
50854;BME280;44154;45.506;-122.806;2022-08-21T08:27:35;100713.97;;;27.29;44.69
50854;BME280;44154;45.506;-122.806;2022-08-21T08:30:01;100701.34;;;27.28;45.04
50854;BME280;44154;45.506;-122.806;2022-08-21T08:32:27;100698.59;;;27.23;44.96
50854;BME280;44154;45.506;-122.806;2022-08-21T08:34:53;100700.78;;;27.21;44.81
50854;BME280;44154;45.506;-122.806;2022-08-21T08:37:20;100706.84;;;27.23;44.83
50854;BME280;44154;45.506;-122.806;2022-08-21T08:39:47;100709.03;;;27.21;44.84
50854;BME280;44154;45.506;-122.806;2022-08-21T08:42:29;100703.00;;;27.19;44.98
50854;BME280;44154;45.506;-122.806;2022-08-21T08:45:21;100711.53;;;27.17;44.93
50854;BME280;44154;45.506;-122.806;2022-08-21T08:48:14;100712.34;;;27.18;44.93
50854;BME280;44154;45.506;-122.806;2022-08-21T08:50:50;100717.81;;;27.18;44.84
50854;BME280;44154;45.506;-122.806;2022-08-21T08:53:51;100697.78;;;27.07;44.92
50854;BME280;44154;45.506;-122.806;2022-08-21T08:56:26;100674.97;;;26.96;44.64
50854;BME280;44154;45.506;-122.806;2022-08-21T08:58:53;100708.75;;;27.12;44.76
50854;BME280;44154;45.506;-122.806;2022-08-21T09:01:22;100707.41;;;27.10;44.71
50854;BME280;44154;45.506;-122.806;2022-08-21T09:03:49;100710.69;;;27.07;44.60
50854;BME280;44154;45.506;-122.806;2022-08-21T09:06:48;100713.69;;;27.05;44.81
50854;BME280;44154;45.506;-122.806;2022-08-21T09:12:07;100727.72;;;27.04;44.55
50854;BME280;44154;45.506;-122.806;2022-08-21T09:25:59;100718.38;;;26.94;44.58
50854;BME280;44154;45.506;-122.806;2022-08-21T09:28:28;100715.34;;;26.96;44.70
50854;BME280;44154;45.506;-122.806;2022-08-21T09:30:56;100693.38;;;26.75;44.72
50854;BME280;44154;45.506;-122.806;2022-08-21T09:33:28;100710.94;;;26.85;44.50
50854;BME280;44154;45.506;-122.806;2022-08-21T09:35:56;100723.03;;;26.89;44.55
50854;BME280;44154;45.506;-122.806;2022-08-21T09:38:32;100725.50;;;26.85;44.93
50854;BME280;44154;45.506;-122.806;2022-08-21T09:41:02;100722.75;;;26.80;44.73
50854;BME280;44154;45.506;-122.806;2022-08-21T09:43:29;100726.59;;;26.84;44.86
50854;BME280;44154;45.506;-122.806;2022-08-21T09:46:09;100729.91;;;26.81;44.43
50854;BME280;44154;45.506;-122.806;2022-08-21T09:48:57;100723.84;;;26.79;44.74
50854;BME280;44154;45.506;-122.806;2022-08-21T09:51:33;100721.94;;;26.79;44.70
50854;BME280;44154;45.506;-122.806;2022-08-21T09:56:36;100735.38;;;26.76;44.76
50854;BME280;44154;45.506;-122.806;2022-08-21T09:59:31;100734.84;;;26.74;44.48
50854;BME280;44154;45.506;-122.806;2022-08-21T10:02:00;100733.97;;;26.73;44.49
50854;BME280;44154;45.506;-122.806;2022-08-21T10:04:30;100738.09;;;26.71;44.47
50854;BME280;44154;45.506;-122.806;2022-08-21T10:07:19;100734.22;;;26.66;44.69
50854;BME280;44154;45.506;-122.806;2022-08-21T10:09:45;100733.13;;;26.67;44.45
50854;BME280;44154;45.506;-122.806;2022-08-21T10:12:19;100727.09;;;26.65;44.85
50854;BME280;44154;45.506;-122.806;2022-08-21T10:20:25;100685.59;;;26.36;44.80
50854;BME280;44154;45.506;-122.806;2022-08-21T10:25:38;100727.06;;;26.55;44.55
50854;BME280;44154;45.506;-122.806;2022-08-21T10:28:34;100727.63;;;26.52;44.43
50854;BME280;44154;45.506;-122.806;2022-08-21T10:40:07;100743.50;;;26.45;44.74
50854;BME280;44154;45.506;-122.806;2022-08-21T10:45:52;100741.84;;;26.44;44.56
50854;BME280;44154;45.506;-122.806;2022-08-21T10:48:29;100739.66;;;26.41;44.36
50854;BME280;44154;45.506;-122.806;2022-08-21T10:51:10;100741.28;;;26.37;44.45
50854;BME280;44154;45.506;-122.806;2022-08-21T10:56:29;100742.63;;;26.34;44.44
50854;BME280;44154;45.506;-122.806;2022-08-21T10:59:30;100745.63;;;26.33;44.84
50854;BME280;44154;45.506;-122.806;2022-08-21T11:02:02;100754.16;;;26.31;44.55
50854;BME280;44154;45.506;-122.806;2022-08-21T11:04:53;100751.66;;;26.29;44.76
50854;BME280;44154;45.506;-122.806;2022-08-21T11:08:02;100754.69;;;26.28;44.58
50854;BME280;44154;45.506;-122.806;2022-08-21T11:10:26;100757.69;;;26.26;44.49
50854;BME280;44154;45.506;-122.806;2022-08-21T11:13:02;100749.44;;;26.21;44.84
50854;BME280;44154;45.506;-122.806;2022-08-21T11:23:31;100744.19;;;26.14;44.86
50854;BME280;44154;45.506;-122.806;2022-08-21T11:26:05;100752.97;;;26.17;44.47
50854;BME280;44154;45.506;-122.806;2022-08-21T11:28:48;100755.16;;;26.14;44.69
50854;BME280;44154;45.506;-122.806;2022-08-21T11:36:36;100753.22;;;26.10;44.42
50854;BME280;44154;45.506;-122.806;2022-08-21T11:44:56;100745.50;;;26.02;44.52
50854;BME280;44154;45.506;-122.806;2022-08-21T11:47:50;100748.50;;;26.00;44.68
50854;BME280;44154;45.506;-122.806;2022-08-21T11:50:28;100736.69;;;26.00;44.88
50854;BME280;44154;45.506;-122.806;2022-08-21T11:53:03;100746.25;;;25.97;44.84
50854;BME280;44154;45.506;-122.806;2022-08-21T11:55:44;100752.00;;;25.95;44.60
50854;BME280;44154;45.506;-122.806;2022-08-21T12:00:49;100755.28;;;25.92;44.76
50854;BME280;44154;45.506;-122.806;2022-08-21T12:03:51;100735.19;;;25.76;44.38
50854;BME280;44154;45.506;-122.806;2022-08-21T12:06:37;100754.75;;;25.90;44.32
50854;BME280;44154;45.506;-122.806;2022-08-21T12:12:24;100756.63;;;25.85;44.77
50854;BME280;44154;45.506;-122.806;2022-08-21T12:15:03;100753.63;;;25.86;44.55
50854;BME280;44154;45.506;-122.806;2022-08-21T12:17:39;100751.94;;;25.85;44.46
50854;BME280;44154;45.506;-122.806;2022-08-21T12:28:27;100737.91;;;25.76;44.38
50854;BME280;44154;45.506;-122.806;2022-08-21T12:30:55;100725.25;;;25.65;44.65
50854;BME280;44154;45.506;-122.806;2022-08-21T12:33:26;100740.63;;;25.71;44.52
50854;BME280;44154;45.506;-122.806;2022-08-21T12:36:09;100728.25;;;25.63;44.36
50854;BME280;44154;45.506;-122.806;2022-08-21T12:38:49;100741.41;;;25.67;44.65
50854;BME280;44154;45.506;-122.806;2022-08-21T12:41:40;100741.47;;;25.72;44.34
50854;BME280;44154;45.506;-122.806;2022-08-21T12:44:14;100749.09;;;25.70;44.53
50854;BME280;44154;45.506;-122.806;2022-08-21T12:46:54;100748.00;;;25.66;44.46
50854;BME280;44154;45.506;-122.806;2022-08-21T12:49:29;100758.66;;;25.62;44.39
50854;BME280;44154;45.506;-122.806;2022-08-21T12:54:43;100750.91;;;25.54;44.54
50854;BME280;44154;45.506;-122.806;2022-08-21T12:57:22;100756.94;;;25.51;44.50
50854;BME280;44154;45.506;-122.806;2022-08-21T12:59:53;100760.25;;;25.53;44.36
50854;BME280;44154;45.506;-122.806;2022-08-21T13:02:23;100759.66;;;25.51;44.82
50854;BME280;44154;45.506;-122.806;2022-08-21T13:04:51;100738.47;;;25.36;44.61
50854;BME280;44154;45.506;-122.806;2022-08-21T13:07:30;100747.22;;;25.38;44.49
50854;BME280;44154;45.506;-122.806;2022-08-21T13:10:09;100768.13;;;25.44;44.57
50854;BME280;44154;45.506;-122.806;2022-08-21T13:12:41;100768.63;;;25.41;44.21
50854;BME280;44154;45.506;-122.806;2022-08-21T13:15:08;100769.47;;;25.41;44.32
50854;BME280;44154;45.506;-122.806;2022-08-21T13:17:38;100785.31;;;25.39;44.70
50854;BME280;44154;45.506;-122.806;2022-08-21T13:20:19;100785.59;;;25.38;44.59
50854;BME280;44154;45.506;-122.806;2022-08-21T13:22:45;100773.75;;;25.32;44.36
50854;BME280;44154;45.506;-122.806;2022-08-21T13:25:14;100778.97;;;25.34;44.46
50854;BME280;44154;45.506;-122.806;2022-08-21T13:27:43;100794.84;;;25.32;44.63
50854;BME280;44154;45.506;-122.806;2022-08-21T13:30:13;100792.63;;;25.28;44.48
50854;BME280;44154;45.506;-122.806;2022-08-21T13:32:45;100786.28;;;25.28;44.73
50854;BME280;44154;45.506;-122.806;2022-08-21T13:35:19;100787.06;;;25.23;44.42
50854;BME280;44154;45.506;-122.806;2022-08-21T13:37:48;100791.47;;;25.24;44.60
50854;BME280;44154;45.506;-122.806;2022-08-21T13:40:24;100790.34;;;25.20;44.72
50854;BME280;44154;45.506;-122.806;2022-08-21T13:42:51;100799.38;;;25.21;44.71
50854;BME280;44154;45.506;-122.806;2022-08-21T13:45:23;100810.59;;;25.19;44.84
50854;BME280;44154;45.506;-122.806;2022-08-21T13:47:50;100740.34;;;24.75;44.33
50854;BME280;44154;45.506;-122.806;2022-08-21T13:50:21;100813.81;;;25.11;44.59
50854;BME280;44154;45.506;-122.806;2022-08-21T13:53:00;100818.78;;;25.14;44.41
50854;BME280;44154;45.506;-122.806;2022-08-21T13:55:43;100793.97;;;24.99;44.59